createdAt,value
2018-06-24T00:01:46.029Z,79.00
2018-06-24T00:04:14.306Z,78.90
2018-06-24T00:06:42.554Z,80.10
2018-06-24T00:09:11.142Z,80.80
2018-06-24T00:11:39.480Z,80.70
2018-06-24T00:14:07.834Z,80.50
2018-06-24T00:16:36.319Z,81.30
2018-06-24T00:19:04.654Z,82.40
2018-06-24T00:21:32.983Z,82.20
2018-06-24T00:24:01.252Z,83.30
2018-06-24T00:26:29.517Z,83.90
2018-06-24T00:28:57.808Z,83.20
2018-06-24T00:34:00.709Z,84.70
2018-06-24T00:36:28.974Z,83.60
2018-06-24T00:38:57.223Z,84.20
2018-06-24T00:41:25.494Z,82.50
2018-06-24T00:43:53.757Z,82.30
2018-06-24T00:46:22.005Z,82.00
2018-06-24T00:48:50.253Z,82.60
2018-06-24T00:51:18.506Z,81.40
2018-06-24T00:53:53.524Z,82.20
2018-06-24T00:56:21.785Z,83.80
2018-06-24T00:58:50.055Z,84.70
2018-06-24T01:01:18.309Z,84.60
2018-06-24T01:03:46.554Z,85.00
2018-06-24T01:06:14.868Z,83.80
2018-06-24T01:08:43.170Z,84.80
2018-06-24T01:11:11.565Z,85.90
2018-06-24T01:13:39.821Z,85.80
2018-06-24T01:16:08.092Z,87.10
2018-06-24T01:21:04.378Z,86.00
2018-06-24T01:23:32.618Z,86.50
2018-06-24T01:26:00.868Z,86.10
2018-06-24T01:28:29.105Z,84.50
2018-06-24T01:30:57.445Z,85.40
2018-06-24T01:33:25.684Z,85.80
2018-06-24T01:35:53.942Z,86.40
2018-06-24T01:38:22.257Z,86.00
2018-06-24T01:40:50.507Z,86.60
2018-06-24T01:43:18.734Z,86.40
2018-06-24T01:45:47.000Z,87.00
2018-06-24T01:50:49.922Z,86.60
2018-06-24T01:53:18.154Z,86.20
2018-06-24T01:55:46.421Z,85.70
2018-06-24T01:58:14.677Z,85.70
2018-06-24T02:00:42.908Z,85.50
2018-06-24T02:03:11.152Z,84.90
2018-06-24T02:05:39.422Z,84.70
2018-06-24T02:08:07.885Z,84.60
2018-06-24T02:10:36.130Z,85.70
2018-06-24T02:13:04.402Z,85.50
2018-06-24T02:15:32.643Z,85.50
2018-06-24T02:18:00.893Z,86.60
2018-06-24T02:20:29.132Z,86.70
2018-06-24T02:22:57.358Z,86.90
2018-06-24T02:25:32.181Z,87.00
2018-06-24T02:28:00.439Z,87.80
2018-06-24T02:30:28.657Z,87.00
2018-06-24T02:32:56.899Z,87.30
2018-06-24T02:35:25.118Z,86.50
2018-06-24T02:37:53.350Z,87.00
2018-06-24T02:40:21.631Z,87.10
2018-06-24T02:42:49.863Z,87.40
2018-06-24T02:45:18.092Z,87.10
2018-06-24T02:47:46.341Z,87.30
2018-06-24T02:50:14.572Z,87.70
2018-06-24T02:52:42.802Z,87.40
2018-06-24T02:55:11.044Z,88.20
2018-06-24T02:57:39.281Z,87.90
2018-06-24T03:00:07.529Z,87.80
2018-06-24T03:02:35.807Z,88.20
2018-06-24T03:05:04.012Z,88.60
2018-06-24T03:07:32.250Z,89.20
2018-06-24T03:10:00.475Z,88.90
2018-06-24T03:12:28.730Z,88.10
2018-06-24T03:14:56.951Z,88.50
2018-06-24T03:17:25.234Z,88.50
2018-06-24T03:19:53.496Z,88.80
2018-06-24T03:22:21.750Z,88.50
2018-06-24T03:24:49.981Z,88.20
2018-06-24T03:27:18.286Z,87.90
2018-06-24T03:29:46.563Z,87.70
2018-06-24T03:32:14.852Z,88.50
2018-06-24T03:34:43.143Z,87.40
2018-06-24T03:37:11.410Z,87.10
2018-06-24T03:39:39.674Z,87.50
2018-06-24T03:42:07.981Z,88.60
2018-06-24T03:44:36.227Z,88.60
2018-06-24T03:47:04.495Z,89.30
2018-06-24T03:49:32.741Z,89.30
2018-06-24T03:52:00.992Z,89.20
2018-06-24T03:54:29.267Z,89.20
2018-06-24T03:56:57.526Z,88.90
2018-06-24T03:59:25.822Z,88.00
2018-06-24T04:01:54.203Z,87.90
2018-06-24T04:04:22.441Z,87.60
2018-06-24T04:06:50.768Z,88.50
2018-06-24T04:09:18.993Z,88.70
2018-06-24T04:11:47.239Z,88.80
2018-06-24T04:14:15.490Z,88.50
2018-06-24T04:16:43.744Z,88.60
2018-06-24T04:19:11.983Z,89.00
2018-06-24T04:21:40.224Z,89.20
2018-06-24T04:24:08.455Z,88.70
2018-06-24T04:26:36.681Z,88.70
2018-06-24T04:29:04.897Z,88.60
2018-06-24T04:31:33.126Z,88.10
2018-06-24T04:34:01.395Z,88.40
2018-06-24T04:36:29.612Z,88.40
2018-06-24T04:38:57.890Z,88.50
2018-06-24T04:41:26.153Z,89.30
2018-06-24T04:43:54.389Z,89.30
2018-06-24T04:46:22.637Z,89.40
2018-06-24T04:48:50.860Z,89.30
2018-06-24T04:51:19.140Z,90.00
2018-06-24T04:53:47.353Z,89.20
2018-06-24T04:56:15.592Z,88.80
2018-06-24T04:58:43.821Z,89.30
2018-06-24T05:01:12.070Z,88.50
2018-06-24T05:03:40.331Z,88.70
2018-06-24T05:06:08.574Z,88.00
2018-06-24T05:08:36.804Z,87.50
2018-06-24T05:11:05.085Z,87.10
2018-06-24T05:13:33.367Z,88.20
2018-06-24T05:16:01.599Z,88.70
2018-06-24T05:18:29.853Z,88.20
2018-06-24T05:20:58.125Z,88.30
2018-06-24T05:23:26.399Z,88.20
2018-06-24T05:25:54.687Z,88.70
2018-06-24T05:28:23.205Z,86.90
2018-06-24T05:30:52.417Z,86.40
2018-06-24T05:33:20.657Z,86.80
2018-06-24T05:35:48.945Z,86.20
2018-06-24T05:38:17.193Z,85.80
2018-06-24T05:40:50.109Z,84.60
2018-06-24T05:43:18.542Z,84.50
2018-06-24T05:45:47.031Z,85.20
2018-06-24T05:48:15.659Z,84.40
2018-06-24T05:50:44.085Z,82.40
2018-06-24T05:53:12.501Z,82.00
2018-06-24T05:55:40.738Z,81.20
2018-06-24T05:58:10.271Z,81.10
2018-06-24T06:00:38.554Z,81.20
2018-06-24T06:03:06.844Z,81.60
2018-06-24T06:05:35.287Z,82.30
2018-06-24T06:08:03.673Z,81.80
2018-06-24T06:10:31.980Z,81.60
2018-06-24T06:13:00.261Z,81.10
2018-06-24T06:15:28.680Z,80.70
2018-06-24T06:17:57.026Z,80.00
2018-06-24T06:20:25.268Z,80.60
2018-06-24T06:22:53.566Z,80.60
2018-06-24T06:25:22.853Z,80.90
2018-06-24T06:27:51.327Z,80.10
2018-06-24T06:30:20.958Z,80.50
2018-06-24T06:35:17.265Z,78.60
2018-06-24T06:37:49.915Z,78.50
2018-06-24T06:40:18.295Z,78.30
2018-06-24T06:42:46.738Z,78.00
2018-06-24T06:45:15.267Z,77.80
2018-06-24T06:47:43.485Z,78.70
2018-06-24T06:50:11.730Z,79.70
2018-06-24T06:52:40.146Z,79.60
2018-06-24T06:55:10.150Z,80.00
2018-06-24T06:57:38.628Z,78.50
2018-06-24T07:00:07.160Z,78.70
2018-06-24T07:02:35.485Z,79.70
2018-06-24T07:05:03.861Z,78.50
2018-06-24T07:07:32.280Z,78.60
2018-06-24T07:10:00.541Z,79.40
2018-06-24T07:12:28.967Z,78.30
2018-06-24T07:14:57.318Z,77.80
2018-06-24T07:17:26.738Z,78.40
2018-06-24T07:19:55.291Z,77.50
2018-06-24T07:22:25.064Z,77.60
2018-06-24T07:24:54.120Z,78.60
2018-06-24T07:27:22.552Z,77.50
2018-06-24T07:32:25.166Z,75.80
2018-06-24T07:34:53.552Z,77.00
2018-06-24T07:37:21.912Z,76.70
2018-06-24T07:39:50.323Z,76.20
2018-06-24T07:42:18.701Z,73.90
2018-06-24T07:44:47.044Z,74.00
2018-06-24T07:47:15.446Z,73.40
2018-06-24T07:49:43.778Z,72.80
2018-06-24T07:52:12.283Z,75.50
2018-06-24T07:54:40.717Z,74.60
2018-06-24T07:57:09.011Z,74.10
2018-06-24T07:59:40.054Z,74.40
2018-06-24T08:02:11.798Z,73.00
2018-06-24T08:04:40.261Z,72.80
2018-06-24T08:07:08.806Z,71.60
2018-06-24T08:09:37.148Z,70.50
2018-06-24T08:12:08.586Z,71.10
2018-06-24T08:14:37.728Z,69.60
2018-06-24T08:17:06.508Z,69.80
2018-06-24T08:19:35.293Z,70.20
2018-06-24T08:22:03.774Z,67.50
2018-06-24T08:24:32.219Z,67.80
2018-06-24T08:27:04.797Z,66.30
2018-06-24T08:29:33.308Z,65.80
2018-06-24T08:32:01.766Z,65.20
2018-06-24T08:34:30.310Z,63.90
2018-06-24T08:36:58.865Z,61.20
2018-06-24T08:39:27.423Z,60.50
2018-06-24T08:41:55.843Z,60.50
2018-06-24T08:44:24.343Z,60.00
2018-06-24T08:46:53.789Z,59.00
2018-06-24T08:49:22.251Z,59.30
2018-06-24T08:51:50.676Z,58.80
2018-06-24T08:54:19.064Z,58.60
2018-06-24T08:56:47.250Z,59.40
2018-06-24T08:59:15.408Z,61.10
2018-06-24T09:01:47.737Z,59.80
2018-06-24T09:04:16.027Z,60.50
2018-06-24T09:06:44.225Z,60.10
2018-06-24T09:11:40.444Z,59.60
2018-06-24T09:14:08.623Z,62.30
2018-06-24T09:16:36.829Z,62.30
2018-06-24T09:19:05.058Z,62.40
2018-06-24T09:21:33.320Z,64.90
2018-06-24T09:24:01.795Z,63.40
2018-06-24T09:26:31.220Z,62.40
2018-06-24T09:28:59.654Z,61.20
2018-06-24T09:31:27.973Z,59.80
2018-06-24T09:33:56.293Z,61.60
2018-06-24T09:38:54.434Z,61.30
2018-06-24T09:41:22.900Z,59.30
2018-06-24T09:43:51.322Z,62.50
2018-06-24T09:46:19.786Z,61.10
2018-06-24T09:48:48.184Z,62.70
2018-06-24T09:51:16.592Z,61.00
2018-06-24T09:53:45.011Z,60.50
2018-06-24T09:56:13.394Z,60.30
2018-06-24T09:58:42.091Z,58.70
2018-06-24T10:01:10.579Z,57.70
2018-06-24T10:03:39.001Z,55.70
2018-06-24T10:06:07.426Z,56.90
2018-06-24T10:08:35.878Z,55.90
2018-06-24T10:11:04.291Z,55.70
2018-06-24T10:13:32.700Z,55.20
2018-06-24T10:16:01.112Z,56.10
2018-06-24T10:18:29.546Z,55.10
2018-06-24T10:20:57.972Z,51.90
2018-06-24T10:23:26.508Z,50.10
2018-06-24T10:25:55.001Z,50.20
2018-06-24T10:28:23.469Z,50.20
2018-06-24T10:30:51.873Z,49.90
2018-06-24T10:33:20.319Z,48.90
2018-06-24T10:35:48.732Z,49.00
2018-06-24T10:38:17.209Z,49.40
2018-06-24T10:40:45.662Z,49.60
2018-06-24T10:43:14.142Z,50.10
2018-06-24T10:45:42.580Z,50.40
2018-06-24T10:48:11.012Z,50.90
2018-06-24T10:50:39.829Z,51.80
2018-06-24T10:53:09.134Z,49.60
2018-06-24T10:55:37.548Z,48.30
2018-06-24T10:58:06.611Z,51.10
2018-06-24T11:00:35.745Z,50.30
2018-06-24T11:03:04.315Z,50.50
2018-06-24T11:05:32.808Z,50.00
2018-06-24T11:08:01.244Z,50.90
2018-06-24T11:10:29.660Z,51.70
2018-06-24T11:12:58.153Z,51.90
2018-06-24T11:15:26.611Z,51.80
2018-06-24T11:17:55.103Z,51.10
2018-06-24T11:20:23.540Z,52.40
2018-06-24T11:22:51.968Z,51.20
2018-06-24T11:25:20.421Z,48.50
2018-06-24T11:27:48.878Z,50.60
2018-06-24T11:30:17.469Z,49.20
2018-06-24T11:35:14.100Z,47.60
2018-06-24T11:37:42.481Z,48.00
2018-06-24T11:40:10.956Z,48.00
2018-06-24T11:42:39.421Z,48.60
2018-06-24T11:45:07.733Z,49.20
2018-06-24T11:47:42.371Z,48.20
2018-06-24T11:50:11.065Z,48.90
2018-06-24T11:52:40.488Z,47.50
2018-06-24T11:55:08.937Z,47.60
2018-06-24T11:57:37.394Z,49.60
2018-06-24T12:00:06.078Z,48.20
2018-06-24T12:02:34.560Z,47.80
2018-06-24T12:05:03.061Z,47.20
2018-06-24T12:07:31.527Z,48.50
2018-06-24T12:09:59.982Z,48.30
2018-06-24T12:12:28.482Z,47.80
2018-06-24T12:14:56.945Z,48.60
2018-06-24T12:17:27.726Z,49.50
2018-06-24T12:19:53.981Z,49.10
2018-06-24T12:22:22.417Z,49.00
2018-06-24T12:24:50.873Z,48.30
2018-06-24T12:27:19.475Z,48.50
2018-06-24T12:29:47.952Z,48.80
2018-06-24T12:32:16.302Z,49.40
2018-06-24T12:34:44.787Z,50.30
2018-06-24T12:37:13.192Z,48.80
2018-06-24T12:39:41.690Z,49.70
2018-06-24T12:42:10.092Z,50.90
2018-06-24T12:44:39.151Z,49.30
2018-06-24T12:47:07.570Z,50.20
2018-06-24T12:49:36.058Z,49.50
2018-06-24T12:52:04.550Z,50.20
2018-06-24T12:54:33.225Z,50.30
2018-06-24T12:57:01.674Z,50.70
2018-06-24T12:59:30.205Z,50.60
2018-06-24T13:01:58.575Z,50.60
2018-06-24T13:04:27.222Z,50.10
2018-06-24T13:06:55.747Z,49.60
2018-06-24T13:09:24.315Z,49.60
2018-06-24T13:11:52.770Z,50.80
2018-06-24T13:14:27.644Z,49.70
2018-06-24T13:16:56.157Z,49.80
2018-06-24T13:19:24.636Z,49.50
2018-06-24T13:21:53.154Z,49.00
2018-06-24T13:24:21.669Z,49.40
2018-06-24T13:26:50.283Z,49.70
2018-06-24T13:29:18.757Z,49.50
2018-06-24T13:31:47.242Z,50.40
2018-06-24T13:34:15.697Z,50.40
2018-06-24T13:36:44.249Z,50.00
2018-06-24T13:39:12.778Z,49.70
2018-06-24T13:41:41.297Z,50.20
2018-06-24T13:44:09.830Z,50.70
2018-06-24T13:46:38.337Z,50.20
2018-06-24T13:49:06.830Z,50.40
2018-06-24T13:51:35.360Z,50.10
2018-06-24T13:54:03.989Z,50.60
2018-06-24T13:56:32.465Z,50.60
2018-06-24T13:59:00.975Z,50.50
2018-06-24T14:01:29.460Z,51.70
2018-06-24T14:03:57.980Z,51.30
2018-06-24T14:06:26.436Z,50.40
2018-06-24T14:08:54.945Z,51.70
2018-06-24T14:11:23.422Z,50.60
2018-06-24T14:13:51.944Z,50.80
2018-06-24T14:16:20.491Z,51.60
2018-06-24T14:18:48.992Z,51.70
2018-06-24T14:21:17.473Z,51.70
2018-06-24T14:23:45.969Z,51.30
2018-06-24T14:26:14.539Z,50.60
2018-06-24T14:28:43.058Z,49.60
2018-06-24T14:31:11.514Z,49.60
2018-06-24T14:33:39.971Z,50.40
2018-06-24T14:36:08.430Z,50.20
2018-06-24T14:38:36.917Z,50.70
2018-06-24T14:41:05.410Z,50.80
2018-06-24T14:43:33.893Z,50.60
2018-06-24T14:46:02.310Z,50.50
2018-06-24T14:48:30.729Z,51.10
2018-06-24T14:50:59.178Z,50.70
2018-06-24T14:53:27.624Z,50.70
2018-06-24T14:55:56.034Z,50.90
2018-06-24T14:58:24.530Z,50.80
2018-06-24T15:00:52.865Z,50.80
2018-06-24T15:03:21.288Z,51.00
2018-06-24T15:05:49.655Z,51.00
2018-06-24T15:08:18.110Z,50.90
2018-06-24T15:10:46.498Z,50.60
2018-06-24T15:13:14.917Z,50.70
2018-06-24T15:15:43.337Z,50.80
2018-06-24T15:18:12.657Z,50.60
2018-06-24T15:20:41.089Z,50.80
2018-06-24T15:25:38.246Z,51.10
2018-06-24T15:28:06.753Z,50.40
2018-06-24T15:30:35.156Z,49.80
2018-06-24T15:33:03.671Z,50.10
2018-06-24T15:35:35.742Z,50.50
2018-06-24T15:38:07.010Z,50.70
2018-06-24T15:40:35.387Z,50.70
2018-06-24T15:43:03.958Z,50.60
2018-06-24T15:45:33.149Z,50.70
2018-06-24T15:48:04.105Z,50.30
2018-06-24T15:50:32.525Z,50.60
2018-06-24T15:53:06.059Z,50.70
2018-06-24T15:58:02.396Z,50.90
2018-06-24T16:00:34.868Z,49.80
2018-06-24T16:03:03.361Z,49.60
2018-06-24T16:05:31.849Z,50.20
2018-06-24T16:08:01.316Z,50.40
2018-06-24T16:10:29.734Z,50.40
2018-06-24T16:12:59.247Z,50.10
2018-06-24T16:15:28.508Z,50.20
2018-06-24T16:17:56.830Z,50.30
2018-06-24T16:20:25.113Z,50.00
2018-06-24T16:22:53.190Z,49.20
2018-06-24T16:25:21.414Z,50.10
2018-06-24T16:27:49.593Z,50.00
2018-06-24T16:30:17.797Z,50.00
2018-06-24T16:32:46.309Z,49.10
2018-06-24T16:35:14.493Z,49.70
2018-06-24T16:37:42.671Z,48.80
2018-06-24T16:40:10.881Z,48.80
2018-06-24T16:42:39.068Z,49.00
2018-06-24T16:45:07.268Z,48.70
2018-06-24T16:50:03.462Z,48.60
2018-06-24T16:52:31.654Z,49.20
2018-06-24T16:54:59.827Z,49.40
2018-06-24T16:57:28.027Z,49.30
2018-06-24T16:59:56.683Z,49.20
2018-06-24T17:02:25.208Z,50.00
2018-06-24T17:04:53.584Z,49.40
2018-06-24T17:07:21.820Z,50.40
2018-06-24T17:09:52.432Z,50.30
2018-06-24T17:12:21.237Z,49.60
2018-06-24T17:14:49.427Z,50.20
2018-06-24T17:17:17.706Z,50.40
2018-06-24T17:19:45.975Z,50.40
2018-06-24T17:22:17.790Z,49.90
2018-06-24T17:24:46.987Z,50.00
2018-06-24T17:27:15.281Z,50.40
2018-06-24T17:29:44.011Z,50.30
2018-06-24T17:32:12.340Z,50.50
2018-06-24T17:34:41.058Z,51.60
2018-06-24T17:37:09.379Z,50.70
2018-06-24T17:39:37.917Z,50.60
2018-06-24T17:42:06.489Z,50.50
2018-06-24T17:44:34.690Z,51.20
2018-06-24T17:47:03.429Z,51.00
2018-06-24T17:49:31.751Z,51.10
2018-06-24T17:51:59.963Z,51.60
2018-06-24T17:54:28.166Z,52.60
2018-06-24T17:56:56.385Z,52.40
2018-06-24T17:59:24.562Z,52.70
2018-06-24T18:01:52.799Z,52.60
2018-06-24T18:04:20.963Z,53.00
2018-06-24T18:06:49.157Z,52.70
2018-06-24T18:09:17.345Z,52.40
2018-06-24T18:11:45.525Z,52.20
2018-06-24T18:14:13.708Z,53.30
2018-06-24T18:16:42.567Z,53.20
2018-06-24T18:19:10.752Z,53.70
2018-06-24T18:21:38.926Z,53.10
2018-06-24T18:24:07.156Z,53.30
2018-06-24T18:26:35.441Z,54.70
2018-06-24T18:29:03.615Z,54.80
2018-06-24T18:31:31.799Z,54.50
2018-06-24T18:33:59.975Z,53.70
2018-06-24T18:36:28.150Z,54.70
2018-06-24T18:38:56.335Z,54.40
2018-06-24T18:41:24.500Z,54.50
2018-06-24T18:43:52.937Z,54.30
2018-06-24T18:46:21.142Z,54.90
2018-06-24T18:48:49.332Z,55.60
2018-06-24T18:51:17.497Z,55.40
2018-06-24T18:53:45.684Z,55.40
2018-06-24T18:56:13.945Z,56.00
2018-06-24T18:58:42.128Z,56.00
2018-06-24T19:01:10.316Z,56.30
2018-06-24T19:03:38.570Z,56.30
2018-06-24T19:06:06.748Z,56.70
2018-06-24T19:08:34.973Z,56.40
2018-06-24T19:11:03.146Z,56.70
2018-06-24T19:13:31.341Z,57.00
2018-06-24T19:15:59.928Z,56.50
2018-06-24T19:18:28.171Z,57.50
2018-06-24T19:20:56.410Z,57.20
2018-06-24T19:23:24.600Z,56.60
2018-06-24T19:25:52.811Z,56.80
2018-06-24T19:28:21.015Z,57.40
2018-06-24T19:30:49.216Z,56.30
2018-06-24T19:33:17.406Z,57.80
2018-06-24T19:35:45.664Z,57.10
2018-06-24T19:38:13.839Z,57.90
2018-06-24T19:40:42.046Z,59.20
2018-06-24T19:43:10.230Z,60.00
2018-06-24T19:45:38.438Z,59.90
2018-06-24T19:48:06.620Z,59.90
2018-06-24T19:50:34.831Z,60.50
2018-06-24T19:53:03.841Z,60.20
2018-06-24T19:55:32.036Z,59.70
2018-06-24T19:58:00.228Z,60.00
2018-06-24T20:00:28.424Z,59.90
2018-06-24T20:02:56.619Z,60.20
2018-06-24T20:05:24.839Z,60.50
2018-06-24T20:07:53.601Z,60.70
2018-06-24T20:10:21.808Z,61.30
2018-06-24T20:12:50.114Z,62.10
2018-06-24T20:15:18.286Z,62.80
2018-06-24T20:17:46.475Z,62.40
2018-06-24T20:20:14.752Z,62.70
2018-06-24T20:22:42.940Z,63.40
2018-06-24T20:25:13.093Z,63.70
2018-06-24T20:27:41.442Z,63.80
2018-06-24T20:30:16.484Z,64.00
2018-06-24T20:32:44.857Z,65.00
2018-06-24T20:35:13.264Z,66.10
2018-06-24T20:37:41.740Z,65.70
2018-06-24T20:40:10.086Z,65.90
2018-06-24T20:42:38.498Z,65.30
2018-06-24T20:45:07.092Z,65.60
2018-06-24T20:47:35.478Z,65.70
2018-06-24T20:50:03.853Z,66.30
2018-06-24T20:52:32.210Z,66.20
2018-06-24T20:55:00.612Z,66.80
2018-06-24T20:57:29.016Z,66.70
2018-06-24T20:59:57.328Z,67.50
2018-06-24T21:02:25.722Z,67.10
2018-06-24T21:04:54.094Z,67.40
2018-06-24T21:07:22.678Z,67.20
2018-06-24T21:09:51.013Z,67.50
2018-06-24T21:12:19.457Z,68.70
2018-06-24T21:14:47.927Z,68.90
2018-06-24T21:17:16.298Z,69.50
2018-06-24T21:19:44.872Z,68.90
2018-06-24T21:22:13.233Z,69.30
2018-06-24T21:24:41.608Z,69.00
2018-06-24T21:27:11.061Z,69.70
2018-06-24T21:29:40.162Z,69.10
2018-06-24T21:32:08.545Z,69.20
2018-06-24T21:34:36.916Z,70.90
2018-06-24T21:37:05.269Z,70.20
2018-06-24T21:39:33.653Z,70.40
2018-06-24T21:42:02.015Z,69.90
2018-06-24T21:44:30.355Z,69.70
2018-06-24T21:46:58.647Z,70.50
2018-06-24T21:49:27.094Z,72.00
2018-06-24T21:51:55.388Z,71.50
2018-06-24T21:54:23.780Z,71.00
2018-06-24T21:56:52.110Z,70.70
2018-06-24T21:59:20.582Z,71.00
2018-06-24T22:01:48.894Z,71.10
2018-06-24T22:06:45.337Z,72.70
2018-06-24T22:11:41.941Z,72.70
2018-06-24T22:14:10.968Z,72.60
2018-06-24T22:16:40.015Z,72.40
2018-06-24T22:19:08.766Z,73.30
2018-06-24T22:21:37.694Z,72.60
2018-06-24T22:24:06.126Z,71.60
2018-06-24T22:26:35.760Z,73.90
2018-06-24T22:29:04.142Z,74.50
2018-06-24T22:31:32.480Z,74.80
2018-06-24T22:34:00.840Z,75.70
2018-06-24T22:36:29.246Z,74.60
2018-06-24T22:38:57.674Z,74.80
2018-06-24T22:41:25.998Z,74.60
2018-06-24T22:43:54.351Z,76.00
2018-06-24T22:46:22.694Z,76.50
2018-06-24T22:48:51.020Z,76.20
2018-06-24T22:51:19.462Z,76.00
2018-06-24T22:53:47.755Z,75.80
2018-06-24T22:56:16.146Z,74.60
2018-06-24T22:58:54.458Z,75.10
2018-06-24T23:01:22.782Z,75.90
2018-06-24T23:03:51.087Z,76.60
2018-06-24T23:06:19.441Z,76.90
2018-06-24T23:08:47.782Z,77.70
2018-06-24T23:11:16.085Z,78.30
2018-06-24T23:13:44.382Z,78.20
2018-06-24T23:16:12.700Z,79.80
2018-06-24T23:18:41.082Z,80.40
2018-06-24T23:21:09.450Z,80.30
2018-06-24T23:23:37.801Z,80.20
2018-06-24T23:26:06.418Z,81.10
2018-06-24T23:28:34.722Z,80.50
2018-06-24T23:31:03.099Z,80.40
2018-06-24T23:33:31.469Z,79.80
2018-06-24T23:35:59.810Z,80.40
2018-06-24T23:38:28.163Z,80.90
2018-06-24T23:40:56.503Z,81.60
2018-06-24T23:43:24.815Z,82.80
2018-06-24T23:45:53.164Z,82.30
2018-06-24T23:48:21.521Z,82.70
2018-06-24T23:50:49.829Z,83.00
2018-06-24T23:53:18.145Z,83.20
2018-06-24T23:55:46.482Z,82.70
2018-06-24T23:58:14.830Z,82.90
